Glen City, Alabama
Current Conditions -  °F | °C
As of 2:55 AM on Sunday 23 Nov 2014 (Local Time) from KASN Reporting Station
Drizzle Drizzle  
Wind Chill: 55°   Ceiling: 1800
Heat Index: 55°   Visibility: 10mi
Dew Point: 52°   Wind: 8mph
Humidity: 88%   Direction: 70°ENE
Pressure: 30.01"   Gusts: 16mph
Location:  33.5807°N, 86.3463°W
Report Text: KASN 230855Z AUTO 07007G14KT 10SM DZ OVC018 13/11 A3001 RMK AO2 P0001 60003 T01300110
Loading
Personal Weather Stations






























Interactive Weather Map New forecast layout! Learn more

10-Day Weather Forecast

Advertisements
Track Severe Weather on mobile